Detalii statie VALKAPA [00001D0A]

Toti senzorii

Date Temperatura solului [C]Precipitatii [mm]Voltaj baterie [mV]Leaf Wetness [Min]HC Air temperature [C]HC Relative humidity [%]Punctul de roua [C]
medieminmaxsumaultimatimpmedieminmaxmediemediemin
2017-06-25 06:00:00 0 6834 17.26 16.33 17.88 91.13 15.6 14.9
2017-06-25 07:00:00 0 6922 18.09 17.3 19.13 90.89 16.4 16.1
2017-06-25 08:00:00 0 7118 21.12 19.6 22.89 79.57 17.3 16.9
2017-06-25 09:00:00 0 7196 24.8 23.18 26.22 63.93 17.3 16.4
2017-06-25 10:00:00 0 7070 24.9 21.8 26.74 53.87 14.6 13.4
2017-06-25 11:00:00 0.4 7148 21.52 20.84 22.78 82.85 18.2 15.5
2017-06-25 12:00:00 0 7236 23.75 21.42 26.96 79.27 19.6 18.6
2017-06-25 13:00:00 0 7226 27.85 26.87 28.82 56.02 18 16.4
2017-06-25 14:00:00 0 7226 29.79 28.59 30.4 47.94 17.3 15.5
2017-06-25 15:00:00 0 7118 28.03 27.34 29.4 53.16 17.3 16.2
2017-06-25 16:00:00 0 7138 28.02 26.76 29.73 59.47 19.1 18.6
2017-06-25 17:00:00 0 7226 28.07 26.97 29.32 58.26 18.7 16.8
2017-06-25 18:00:00 0 7236 28.95 28.15 29.71 48.6 16.8 16.2
2017-06-25 19:00:00 0 7080 28.86 28.37 29.45 50.5 17.2 16.5
2017-06-25 20:00:00 0 6922 25.95 23.99 28.35 75.47 20.9 18.2
2017-06-25 21:00:00 0.4 6894 23.41 22.93 23.77 95.88 22.5 22.1
2017-06-25 22:00:00 1.4 6884 21.35 20.49 23.07 97.89 20.8 20.4
2017-06-25 23:00:00 1 6874 20.05 19.59 20.39 100 19.9 19.5
2017-06-26 00:00:00 0 6864 19.26 19.1 19.64 100 19.2 19.1
2017-06-26 01:00:00 2 6844 19.25 19 19.44 100 19.2 19
2017-06-26 02:00:00 3.6 6844 18.98 18.84 19.21 100 18.9 18.8
2017-06-26 03:00:00 0 6834 18.69 18.63 18.82 100 18.6 18.6
2017-06-26 04:00:00 0 6826 18.38 18.21 18.61 100 18.3 18.2
2017-06-26 05:00:00 0 6826 18.18 18.08 18.29 100 18.1 18
2017-06-26 06:00:00 0 6854 18.39 18.13 18.75 100 18.3 18.1
2017-06-26 07:00:00 0 6932 19.07 18.75 19.52 100 19 18.7
2017-06-26 08:00:00 0 7060 20.76 19.5 21.61 99.48 20.6 19.5
2017-06-26 09:00:00 0 7186 21.55 20.89 22.15 96.46 20.8 20.2
2017-06-26 10:00:00 0 7236 22.16 21.51 22.67 89.89 20.2 19.5
2017-06-26 11:00:00 0 7226 22.79 22.12 23.48 84.9 19.9 19.5
2017-06-26 12:00:00 0 7236 23.85 23.12 24.67 78.08 19.6 19
2017-06-26 13:00:00 0 7236 24.96 24.2 26.05 72.59 19.5 18.7
2017-06-26 14:00:00 0 7236 25.42 24.69 26.05 67.18 18.6 17.8
2017-06-26 15:00:00 0 7236 25.94 25.28 26.65 65.12 18.7 18.2
2017-06-26 16:00:00 0 7236 25.84 25.45 26.39 62.93 18 17.2
2017-06-26 17:00:00 0 7226 25.84 25.05 26.5 62.21 17.8 17.5
2017-06-26 18:00:00 0 7226 25.18 24.5 26.06 64.52 17.8 17
2017-06-26 19:00:00 0 7226 24.79 24.06 26.23 69.42 18.6 17.8
2017-06-26 20:00:00 0 7226 23.89 23.47 24.17 78.14 19.6 19.4
2017-06-26 21:00:00 0 6904 21.89 20.75 23.39 94.21 20.7 20.3
2017-06-26 22:00:00 0 6894 20.06 19.4 20.49 100 20 19.4
2017-06-26 23:00:00 0 6894 19.83 19.55 20.13 100 19.8 19.5
2017-06-27 00:00:00 0 6874 20.2 19.98 20.41 100 20.1 19.9
2017-06-27 01:00:00 0 6864 19.85 19.64 19.99 100 19.8 19.6
2017-06-27 02:00:00 0 6854 19.48 19.22 19.75 100 19.4 19.2
2017-06-27 03:00:00 0 6844 18.86 18.53 19.14 100 18.8 18.5
2017-06-27 04:00:00 0 6826 18.4 18.18 18.63 100 18.3 18.1
2017-06-27 05:00:00 0 6826 18.06 17.84 18.28 100 18 17.8